Cheboygan, Michigan
Current Conditions -  °F | °C
As of 5:18 AM on Wednesday 26 Nov 2014 (Local Time) from KSLH Reporting Station
Overcast Overcast  
Wind Chill: 27°   Ceiling: 2700
Heat Index: 27°   Visibility: 10mi
Dew Point: 26°   Wind: 0mph
Humidity: 95%   Direction: NA
Pressure: 30.18"   Gusts: NA
Location:  45.65°N, 84.47°W
Report Text: KSLH 261018Z AUTO 00000KT 10SM OVC027 M02/M03 A3018 RMK AO2 T10281035
Loading
Personal Weather Stations






























Interactive Weather Map New forecast layout! Learn more

10-Day Weather Forecast

Advertisements
Track Severe Weather on mobile